sensor_id;sensor_type;location;lat;lon;timestamp;P1;durP1;ratioP1;P2;durP2;ratioP2
73557;SDS011;61829;53.286;10.434;2024-02-15T00:02:00;11.02;;;6.43;;
73557;SDS011;61829;53.286;10.434;2024-02-15T00:04:44;13.52;;;6.78;;
73557;SDS011;61829;53.286;10.434;2024-02-15T00:07:29;14.02;;;7.22;;
73557;SDS011;61829;53.286;10.434;2024-02-15T00:10:13;13.52;;;7.10;;
73557;SDS011;61829;53.286;10.434;2024-02-15T00:12:58;14.43;;;7.68;;
73557;SDS011;61829;53.286;10.434;2024-02-15T00:15:42;13.25;;;7.38;;
73557;SDS011;61829;53.286;10.434;2024-02-15T00:18:32;14.05;;;7.70;;
73557;SDS011;61829;53.286;10.434;2024-02-15T00:24:27;13.23;;;6.65;;
73557;SDS011;61829;53.286;10.434;2024-02-15T00:27:11;14.75;;;7.47;;
73557;SDS011;61829;53.286;10.434;2024-02-15T00:29:55;14.25;;;7.80;;
73557;SDS011;61829;53.286;10.434;2024-02-15T00:32:39;16.20;;;7.30;;
73557;SDS011;61829;53.286;10.434;2024-02-15T00:38:35;13.18;;;6.40;;
73557;SDS011;61829;53.286;10.434;2024-02-15T00:41:21;12.05;;;6.57;;
73557;SDS011;61829;53.286;10.434;2024-02-15T00:44:05;12.82;;;6.85;;
73557;SDS011;61829;53.286;10.434;2024-02-15T00:46:50;12.05;;;6.10;;
73557;SDS011;61829;53.286;10.434;2024-02-15T00:49:35;14.40;;;6.78;;
73557;SDS011;61829;53.286;10.434;2024-02-15T00:52:20;11.73;;;6.05;;
73557;SDS011;61829;53.286;10.434;2024-02-15T00:58:30;12.38;;;6.72;;
73557;SDS011;61829;53.286;10.434;2024-02-15T01:01:14;12.30;;;6.60;;
73557;SDS011;61829;53.286;10.434;2024-02-15T01:03:59;15.52;;;7.25;;
73557;SDS011;61829;53.286;10.434;2024-02-15T01:06:44;13.13;;;7.07;;
73557;SDS011;61829;53.286;10.434;2024-02-15T01:09:29;14.85;;;6.97;;
73557;SDS011;61829;53.286;10.434;2024-02-15T01:12:13;12.85;;;6.82;;
73557;SDS011;61829;53.286;10.434;2024-02-15T01:14:58;12.93;;;7.38;;
73557;SDS011;61829;53.286;10.434;2024-02-15T01:17:43;12.77;;;7.00;;
73557;SDS011;61829;53.286;10.434;2024-02-15T01:20:28;13.38;;;6.97;;
73557;SDS011;61829;53.286;10.434;2024-02-15T01:23:12;14.15;;;7.00;;
73557;SDS011;61829;53.286;10.434;2024-02-15T01:25:56;13.38;;;7.15;;
73557;SDS011;61829;53.286;10.434;2024-02-15T01:28:41;14.50;;;7.88;;
73557;SDS011;61829;53.286;10.434;2024-02-15T01:31:27;14.00;;;7.50;;
73557;SDS011;61829;53.286;10.434;2024-02-15T01:34:12;14.15;;;7.60;;
73557;SDS011;61829;53.286;10.434;2024-02-15T01:36:57;13.75;;;7.60;;
73557;SDS011;61829;53.286;10.434;2024-02-15T01:39:41;15.30;;;7.18;;
73557;SDS011;61829;53.286;10.434;2024-02-15T01:42:26;15.63;;;7.82;;
73557;SDS011;61829;53.286;10.434;2024-02-15T01:45:10;17.67;;;8.07;;
73557;SDS011;61829;53.286;10.434;2024-02-15T01:47:56;14.45;;;7.50;;
73557;SDS011;61829;53.286;10.434;2024-02-15T01:50:41;17.15;;;7.60;;
73557;SDS011;61829;53.286;10.434;2024-02-15T01:53:28;16.63;;;8.13;;
73557;SDS011;61829;53.286;10.434;2024-02-15T01:59:01;16.13;;;7.50;;
73557;SDS011;61829;53.286;10.434;2024-02-15T02:01:46;17.92;;;8.40;;
73557;SDS011;61829;53.286;10.434;2024-02-15T02:04:36;16.90;;;8.10;;
73557;SDS011;61829;53.286;10.434;2024-02-15T02:07:22;19.33;;;8.70;;
73557;SDS011;61829;53.286;10.434;2024-02-15T02:10:07;20.17;;;9.38;;
73557;SDS011;61829;53.286;10.434;2024-02-15T02:12:53;18.75;;;9.07;;
73557;SDS011;61829;53.286;10.434;2024-02-15T02:15:37;16.58;;;8.50;;
73557;SDS011;61829;53.286;10.434;2024-02-15T02:18:22;19.35;;;9.35;;
73557;SDS011;61829;53.286;10.434;2024-02-15T02:21:08;19.90;;;9.25;;
73557;SDS011;61829;53.286;10.434;2024-02-15T02:23:55;18.92;;;8.20;;
73557;SDS011;61829;53.286;10.434;2024-02-15T02:26:41;22.40;;;9.75;;
73557;SDS011;61829;53.286;10.434;2024-02-15T02:29:25;18.90;;;9.15;;
73557;SDS011;61829;53.286;10.434;2024-02-15T02:32:13;19.98;;;9.98;;
73557;SDS011;61829;53.286;10.434;2024-02-15T02:35:05;19.88;;;9.70;;
73557;SDS011;61829;53.286;10.434;2024-02-15T02:37:51;21.27;;;9.57;;
73557;SDS011;61829;53.286;10.434;2024-02-15T02:40:39;18.95;;;8.60;;
73557;SDS011;61829;53.286;10.434;2024-02-15T02:43:24;19.35;;;8.65;;
73557;SDS011;61829;53.286;10.434;2024-02-15T02:46:10;18.50;;;9.02;;
73557;SDS011;61829;53.286;10.434;2024-02-15T02:48:56;19.73;;;8.50;;
73557;SDS011;61829;53.286;10.434;2024-02-15T02:51:42;18.73;;;8.55;;
73557;SDS011;61829;53.286;10.434;2024-02-15T02:54:27;19.85;;;8.93;;
73557;SDS011;61829;53.286;10.434;2024-02-15T02:57:13;16.95;;;8.43;;
73557;SDS011;61829;53.286;10.434;2024-02-15T02:59:58;15.73;;;8.15;;
73557;SDS011;61829;53.286;10.434;2024-02-15T03:02:44;19.35;;;8.13;;
73557;SDS011;61829;53.286;10.434;2024-02-15T03:05:30;14.07;;;7.50;;
73557;SDS011;61829;53.286;10.434;2024-02-15T03:08:14;15.10;;;7.38;;
73557;SDS011;61829;53.286;10.434;2024-02-15T03:11:02;16.02;;;7.63;;
73557;SDS011;61829;53.286;10.434;2024-02-15T03:16:32;14.57;;;7.03;;
73557;SDS011;61829;53.286;10.434;2024-02-15T03:22:02;13.98;;;5.85;;
73557;SDS011;61829;53.286;10.434;2024-02-15T03:24:46;13.25;;;6.43;;
73557;SDS011;61829;53.286;10.434;2024-02-15T03:27:31;10.82;;;6.05;;
73557;SDS011;61829;53.286;10.434;2024-02-15T03:30:15;11.70;;;6.60;;
73557;SDS011;61829;53.286;10.434;2024-02-15T03:33:00;11.45;;;5.97;;
73557;SDS011;61829;53.286;10.434;2024-02-15T03:35:46;12.77;;;6.55;;
73557;SDS011;61829;53.286;10.434;2024-02-15T03:38:30;11.45;;;6.05;;
73557;SDS011;61829;53.286;10.434;2024-02-15T03:41:15;15.13;;;6.18;;
73557;SDS011;61829;53.286;10.434;2024-02-15T03:44:00;11.90;;;5.88;;
73557;SDS011;61829;53.286;10.434;2024-02-15T03:46:44;12.75;;;5.90;;
73557;SDS011;61829;53.286;10.434;2024-02-15T03:52:20;11.02;;;5.55;;
73557;SDS011;61829;53.286;10.434;2024-02-15T03:55:05;12.30;;;6.03;;
73557;SDS011;61829;53.286;10.434;2024-02-15T03:57:51;10.85;;;5.90;;
73557;SDS011;61829;53.286;10.434;2024-02-15T04:00:37;11.57;;;5.65;;
73557;SDS011;61829;53.286;10.434;2024-02-15T04:07:23;10.63;;;5.65;;
73557;SDS011;61829;53.286;10.434;2024-02-15T04:10:10;13.23;;;6.35;;
73557;SDS011;61829;53.286;10.434;2024-02-15T04:12:56;15.90;;;6.60;;
73557;SDS011;61829;53.286;10.434;2024-02-15T04:15:42;10.93;;;5.93;;
73557;SDS011;61829;53.286;10.434;2024-02-15T04:21:21;11.85;;;5.82;;
73557;SDS011;61829;53.286;10.434;2024-02-15T04:24:06;11.63;;;6.15;;
73557;SDS011;61829;53.286;10.434;2024-02-15T04:26:51;13.60;;;6.28;;
73557;SDS011;61829;53.286;10.434;2024-02-15T04:29:35;12.57;;;7.13;;
73557;SDS011;61829;53.286;10.434;2024-02-15T04:32:21;11.40;;;6.40;;
73557;SDS011;61829;53.286;10.434;2024-02-15T04:35:05;12.18;;;6.25;;
73557;SDS011;61829;53.286;10.434;2024-02-15T04:37:50;14.73;;;7.07;;
73557;SDS011;61829;53.286;10.434;2024-02-15T04:40:37;13.18;;;7.05;;
73557;SDS011;61829;53.286;10.434;2024-02-15T04:43:23;13.82;;;6.35;;
73557;SDS011;61829;53.286;10.434;2024-02-15T04:46:08;13.30;;;6.80;;
73557;SDS011;61829;53.286;10.434;2024-02-15T04:48:53;14.35;;;7.07;;
73557;SDS011;61829;53.286;10.434;2024-02-15T04:51:40;14.60;;;6.88;;
73557;SDS011;61829;53.286;10.434;2024-02-15T04:54:25;14.85;;;7.18;;
73557;SDS011;61829;53.286;10.434;2024-02-15T04:57:10;16.05;;;6.78;;
73557;SDS011;61829;53.286;10.434;2024-02-15T04:59:55;15.32;;;6.88;;
73557;SDS011;61829;53.286;10.434;2024-02-15T05:02:40;15.52;;;6.60;;
73557;SDS011;61829;53.286;10.434;2024-02-15T05:05:25;12.55;;;7.00;;
73557;SDS011;61829;53.286;10.434;2024-02-15T05:08:11;13.63;;;6.82;;
73557;SDS011;61829;53.286;10.434;2024-02-15T05:10:56;13.25;;;6.88;;
73557;SDS011;61829;53.286;10.434;2024-02-15T05:16:26;12.70;;;6.63;;
73557;SDS011;61829;53.286;10.434;2024-02-15T05:19:10;13.48;;;6.78;;
73557;SDS011;61829;53.286;10.434;2024-02-15T05:21:58;15.55;;;7.43;;
73557;SDS011;61829;53.286;10.434;2024-02-15T05:24:43;16.58;;;7.38;;
73557;SDS011;61829;53.286;10.434;2024-02-15T05:31:12;16.98;;;7.82;;
73557;SDS011;61829;53.286;10.434;2024-02-15T05:34:09;18.90;;;7.80;;
73557;SDS011;61829;53.286;10.434;2024-02-15T05:36:58;16.17;;;8.02;;
73557;SDS011;61829;53.286;10.434;2024-02-15T05:39:42;18.10;;;8.50;;
73557;SDS011;61829;53.286;10.434;2024-02-15T05:42:45;16.45;;;7.07;;
73557;SDS011;61829;53.286;10.434;2024-02-15T05:45:30;18.17;;;8.02;;
73557;SDS011;61829;53.286;10.434;2024-02-15T05:48:16;15.27;;;8.20;;
73557;SDS011;61829;53.286;10.434;2024-02-15T05:51:01;16.13;;;7.45;;
73557;SDS011;61829;53.286;10.434;2024-02-15T05:53:50;16.70;;;8.07;;
73557;SDS011;61829;53.286;10.434;2024-02-15T05:56:35;20.48;;;8.00;;
73557;SDS011;61829;53.286;10.434;2024-02-15T05:59:20;17.38;;;8.05;;
73557;SDS011;61829;53.286;10.434;2024-02-15T06:02:05;17.65;;;8.50;;
73557;SDS011;61829;53.286;10.434;2024-02-15T06:04:49;17.02;;;7.70;;
73557;SDS011;61829;53.286;10.434;2024-02-15T06:07:37;17.35;;;7.95;;
73557;SDS011;61829;53.286;10.434;2024-02-15T06:10:22;19.33;;;8.48;;
73557;SDS011;61829;53.286;10.434;2024-02-15T06:13:06;19.73;;;8.23;;
73557;SDS011;61829;53.286;10.434;2024-02-15T06:15:53;20.55;;;8.75;;
73557;SDS011;61829;53.286;10.434;2024-02-15T06:18:38;21.38;;;9.45;;
73557;SDS011;61829;53.286;10.434;2024-02-15T06:21:23;18.77;;;8.45;;
73557;SDS011;61829;53.286;10.434;2024-02-15T06:24:08;19.92;;;8.63;;
73557;SDS011;61829;53.286;10.434;2024-02-15T06:26:53;20.73;;;8.57;;
73557;SDS011;61829;53.286;10.434;2024-02-15T06:29:44;18.42;;;8.88;;
73557;SDS011;61829;53.286;10.434;2024-02-15T06:32:47;19.40;;;8.57;;
73557;SDS011;61829;53.286;10.434;2024-02-15T06:35:51;21.23;;;9.98;;
73557;SDS011;61829;53.286;10.434;2024-02-15T06:39:04;20.05;;;9.32;;
73557;SDS011;61829;53.286;10.434;2024-02-15T06:42:08;19.15;;;9.38;;
73557;SDS011;61829;53.286;10.434;2024-02-15T06:44:55;19.48;;;10.00;;
73557;SDS011;61829;53.286;10.434;2024-02-15T06:47:43;21.77;;;9.75;;
73557;SDS011;61829;53.286;10.434;2024-02-15T06:50:28;22.23;;;9.55;;
73557;SDS011;61829;53.286;10.434;2024-02-15T06:53:13;22.23;;;10.23;;
73557;SDS011;61829;53.286;10.434;2024-02-15T06:58:43;19.25;;;9.15;;
73557;SDS011;61829;53.286;10.434;2024-02-15T07:01:28;22.40;;;9.88;;
73557;SDS011;61829;53.286;10.434;2024-02-15T07:04:12;22.55;;;10.00;;
73557;SDS011;61829;53.286;10.434;2024-02-15T07:06:56;21.08;;;9.55;;
73557;SDS011;61829;53.286;10.434;2024-02-15T07:09:42;22.27;;;9.45;;
73557;SDS011;61829;53.286;10.434;2024-02-15T07:12:27;20.55;;;10.35;;
73557;SDS011;61829;53.286;10.434;2024-02-15T07:15:11;21.58;;;9.25;;
73557;SDS011;61829;53.286;10.434;2024-02-15T07:17:56;19.75;;;8.90;;
73557;SDS011;61829;53.286;10.434;2024-02-15T07:20:41;22.65;;;9.25;;
73557;SDS011;61829;53.286;10.434;2024-02-15T07:23:25;22.38;;;9.65;;
73557;SDS011;61829;53.286;10.434;2024-02-15T07:26:09;19.05;;;9.02;;
73557;SDS011;61829;53.286;10.434;2024-02-15T07:28:57;21.80;;;9.32;;
73557;SDS011;61829;53.286;10.434;2024-02-15T07:31:41;23.75;;;9.63;;
73557;SDS011;61829;53.286;10.434;2024-02-15T07:34:26;22.60;;;9.43;;
73557;SDS011;61829;53.286;10.434;2024-02-15T07:37:10;22.60;;;9.73;;
73557;SDS011;61829;53.286;10.434;2024-02-15T07:39:56;19.33;;;8.70;;
73557;SDS011;61829;53.286;10.434;2024-02-15T07:42:41;23.60;;;10.18;;
73557;SDS011;61829;53.286;10.434;2024-02-15T07:45:26;22.80;;;10.18;;
73557;SDS011;61829;53.286;10.434;2024-02-15T07:48:11;23.25;;;9.73;;
73557;SDS011;61829;53.286;10.434;2024-02-15T07:50:56;21.13;;;8.57;;
73557;SDS011;61829;53.286;10.434;2024-02-15T07:53:43;19.25;;;8.93;;
73557;SDS011;61829;53.286;10.434;2024-02-15T07:56:28;19.80;;;9.20;;
73557;SDS011;61829;53.286;10.434;2024-02-15T07:59:12;19.30;;;8.45;;
73557;SDS011;61829;53.286;10.434;2024-02-15T08:01:56;18.42;;;8.20;;
73557;SDS011;61829;53.286;10.434;2024-02-15T08:04:41;17.58;;;8.10;;
73557;SDS011;61829;53.286;10.434;2024-02-15T08:11:10;21.58;;;8.20;;
73557;SDS011;61829;53.286;10.434;2024-02-15T08:13:58;19.75;;;8.63;;
73557;SDS011;61829;53.286;10.434;2024-02-15T08:16:43;17.60;;;8.35;;
73557;SDS011;61829;53.286;10.434;2024-02-15T08:19:27;16.70;;;8.63;;
73557;SDS011;61829;53.286;10.434;2024-02-15T08:22:14;17.52;;;8.18;;
73557;SDS011;61829;53.286;10.434;2024-02-15T08:25:01;16.73;;;8.50;;
73557;SDS011;61829;53.286;10.434;2024-02-15T08:27:48;17.45;;;7.88;;
73557;SDS011;61829;53.286;10.434;2024-02-15T08:30:36;14.63;;;7.60;;
73557;SDS011;61829;53.286;10.434;2024-02-15T08:33:21;18.45;;;8.63;;
73557;SDS011;61829;53.286;10.434;2024-02-15T08:36:07;13.40;;;6.60;;
73557;SDS011;61829;53.286;10.434;2024-02-15T08:38:54;14.90;;;7.43;;
73557;SDS011;61829;53.286;10.434;2024-02-15T08:41:38;17.88;;;7.32;;
73557;SDS011;61829;53.286;10.434;2024-02-15T08:44:23;14.40;;;5.95;;
73557;SDS011;61829;53.286;10.434;2024-02-15T08:47:09;14.15;;;6.82;;
73557;SDS011;61829;53.286;10.434;2024-02-15T08:49:53;10.38;;;5.75;;
73557;SDS011;61829;53.286;10.434;2024-02-15T08:52:38;12.20;;;6.05;;
73557;SDS011;61829;53.286;10.434;2024-02-15T08:55:24;11.38;;;6.07;;
73557;SDS011;61829;53.286;10.434;2024-02-15T08:58:10;10.55;;;5.07;;
73557;SDS011;61829;53.286;10.434;2024-02-15T09:00:55;10.95;;;6.10;;
73557;SDS011;61829;53.286;10.434;2024-02-15T09:03:40;9.40;;;5.13;;
73557;SDS011;61829;53.286;10.434;2024-02-15T09:06:25;8.43;;;4.78;;
73557;SDS011;61829;53.286;10.434;2024-02-15T09:11:55;8.55;;;4.57;;
73557;SDS011;61829;53.286;10.434;2024-02-15T09:14:39;9.57;;;5.22;;
73557;SDS011;61829;53.286;10.434;2024-02-15T09:17:23;9.30;;;4.85;;
73557;SDS011;61829;53.286;10.434;2024-02-15T09:20:11;11.27;;;5.60;;
73557;SDS011;61829;53.286;10.434;2024-02-15T09:23:00;9.40;;;5.28;;
73557;SDS011;61829;53.286;10.434;2024-02-15T09:25:49;9.85;;;5.18;;
73557;SDS011;61829;53.286;10.434;2024-02-15T09:28:36;9.15;;;5.00;;
73557;SDS011;61829;53.286;10.434;2024-02-15T09:31:20;10.63;;;5.63;;
73557;SDS011;61829;53.286;10.434;2024-02-15T09:34:05;8.85;;;5.20;;
73557;SDS011;61829;53.286;10.434;2024-02-15T09:39:36;9.50;;;5.38;;
73557;SDS011;61829;53.286;10.434;2024-02-15T09:42:22;9.98;;;5.63;;
73557;SDS011;61829;53.286;10.434;2024-02-15T09:45:08;10.88;;;5.90;;
73557;SDS011;61829;53.286;10.434;2024-02-15T09:48:02;9.68;;;5.50;;
73557;SDS011;61829;53.286;10.434;2024-02-15T09:50:52;11.35;;;5.80;;
73557;SDS011;61829;53.286;10.434;2024-02-15T09:53:37;10.68;;;6.53;;
73557;SDS011;61829;53.286;10.434;2024-02-15T09:56:22;15.27;;;7.50;;
73557;SDS011;61829;53.286;10.434;2024-02-15T09:59:08;12.70;;;7.13;;
73557;SDS011;61829;53.286;10.434;2024-02-15T10:01:54;12.18;;;7.20;;
73557;SDS011;61829;53.286;10.434;2024-02-15T10:04:42;13.00;;;7.60;;
73557;SDS011;61829;53.286;10.434;2024-02-15T10:07:27;15.88;;;7.38;;
73557;SDS011;61829;53.286;10.434;2024-02-15T10:13:06;13.90;;;7.88;;
73557;SDS011;61829;53.286;10.434;2024-02-15T10:15:57;15.13;;;7.93;;
73557;SDS011;61829;53.286;10.434;2024-02-15T10:18:41;14.75;;;8.50;;
73557;SDS011;61829;53.286;10.434;2024-02-15T10:21:26;15.73;;;7.85;;
73557;SDS011;61829;53.286;10.434;2024-02-15T10:24:13;19.13;;;8.55;;
73557;SDS011;61829;53.286;10.434;2024-02-15T10:27:01;18.70;;;7.85;;
73557;SDS011;61829;53.286;10.434;2024-02-15T10:29:48;15.82;;;8.43;;
73557;SDS011;61829;53.286;10.434;2024-02-15T10:35:19;17.05;;;8.90;;
73557;SDS011;61829;53.286;10.434;2024-02-15T10:38:05;19.05;;;8.85;;
73557;SDS011;61829;53.286;10.434;2024-02-15T10:40:55;18.23;;;8.90;;
73557;SDS011;61829;53.286;10.434;2024-02-15T10:43:48;18.13;;;8.50;;
73557;SDS011;61829;53.286;10.434;2024-02-15T10:46:33;18.00;;;9.68;;
73557;SDS011;61829;53.286;10.434;2024-02-15T10:49:24;22.77;;;10.90;;
73557;SDS011;61829;53.286;10.434;2024-02-15T10:54:56;25.38;;;11.18;;
73557;SDS011;61829;53.286;10.434;2024-02-15T10:57:48;22.92;;;11.50;;
73557;SDS011;61829;53.286;10.434;2024-02-15T11:00:35;22.75;;;11.52;;
73557;SDS011;61829;53.286;10.434;2024-02-15T11:03:25;20.30;;;11.70;;
73557;SDS011;61829;53.286;10.434;2024-02-15T11:06:15;21.85;;;12.40;;
73557;SDS011;61829;53.286;10.434;2024-02-15T11:09:01;26.50;;;12.95;;
73557;SDS011;61829;53.286;10.434;2024-02-15T11:11:47;27.25;;;13.10;;
73557;SDS011;61829;53.286;10.434;2024-02-15T11:14:35;22.92;;;12.93;;
73557;SDS011;61829;53.286;10.434;2024-02-15T11:23:23;24.77;;;13.30;;
73557;SDS011;61829;53.286;10.434;2024-02-15T11:26:45;24.10;;;12.65;;
73557;SDS011;61829;53.286;10.434;2024-02-15T11:35:36;21.10;;;11.60;;
73557;SDS011;61829;53.286;10.434;2024-02-15T11:38:50;20.98;;;11.95;;
73557;SDS011;61829;53.286;10.434;2024-02-15T11:45:11;19.83;;;11.00;;
73557;SDS011;61829;53.286;10.434;2024-02-15T11:47:56;20.65;;;11.18;;
73557;SDS011;61829;53.286;10.434;2024-02-15T11:50:41;19.80;;;10.95;;
73557;SDS011;61829;53.286;10.434;2024-02-15T11:53:25;16.90;;;11.07;;
73557;SDS011;61829;53.286;10.434;2024-02-15T11:56:10;18.67;;;10.25;;
73557;SDS011;61829;53.286;10.434;2024-02-15T11:59:03;16.10;;;9.25;;
73557;SDS011;61829;53.286;10.434;2024-02-15T12:01:50;17.33;;;10.00;;
73557;SDS011;61829;53.286;10.434;2024-02-15T12:05:04;20.25;;;9.18;;
73557;SDS011;61829;53.286;10.434;2024-02-15T12:08:11;16.77;;;8.88;;
73557;SDS011;61829;53.286;10.434;2024-02-15T12:14:19;13.88;;;8.07;;
73557;SDS011;61829;53.286;10.434;2024-02-15T12:17:23;17.92;;;8.82;;
73557;SDS011;61829;53.286;10.434;2024-02-15T12:20:26;14.00;;;8.55;;
73557;SDS011;61829;53.286;10.434;2024-02-15T12:23:29;14.65;;;8.50;;
73557;SDS011;61829;53.286;10.434;2024-02-15T12:26:20;14.80;;;7.40;;
73557;SDS011;61829;53.286;10.434;2024-02-15T12:29:04;14.60;;;7.07;;
73557;SDS011;61829;53.286;10.434;2024-02-15T12:31:51;16.75;;;6.80;;
73557;SDS011;61829;53.286;10.434;2024-02-15T12:34:35;13.65;;;6.80;;
73557;SDS011;61829;53.286;10.434;2024-02-15T12:37:23;12.13;;;6.72;;
73557;SDS011;61829;53.286;10.434;2024-02-15T12:40:15;13.05;;;6.55;;
73557;SDS011;61829;53.286;10.434;2024-02-15T12:43:02;11.70;;;6.30;;
73557;SDS011;61829;53.286;10.434;2024-02-15T12:45:52;9.93;;;6.05;;
73557;SDS011;61829;53.286;10.434;2024-02-15T12:55:19;8.80;;;4.68;;
73557;SDS011;61829;53.286;10.434;2024-02-15T12:58:07;8.77;;;5.13;;
73557;SDS011;61829;53.286;10.434;2024-02-15T13:00:57;10.90;;;4.97;;
73557;SDS011;61829;53.286;10.434;2024-02-15T13:03:42;10.60;;;4.90;;
73557;SDS011;61829;53.286;10.434;2024-02-15T13:06:27;8.77;;;4.85;;
73557;SDS011;61829;53.286;10.434;2024-02-15T13:09:13;8.88;;;4.70;;
73557;SDS011;61829;53.286;10.434;2024-02-15T13:15:39;8.90;;;4.22;;
73557;SDS011;61829;53.286;10.434;2024-02-15T13:18:24;8.55;;;4.05;;
73557;SDS011;61829;53.286;10.434;2024-02-15T13:21:10;10.63;;;3.92;;
73557;SDS011;61829;53.286;10.434;2024-02-15T13:23:54;8.73;;;4.07;;
73557;SDS011;61829;53.286;10.434;2024-02-15T13:26:39;7.63;;;3.60;;
73557;SDS011;61829;53.286;10.434;2024-02-15T13:29:24;5.60;;;3.53;;
73557;SDS011;61829;53.286;10.434;2024-02-15T13:32:09;5.47;;;3.35;;
73557;SDS011;61829;53.286;10.434;2024-02-15T13:34:56;6.15;;;3.28;;
73557;SDS011;61829;53.286;10.434;2024-02-15T13:37:47;5.97;;;3.28;;
73557;SDS011;61829;53.286;10.434;2024-02-15T13:40:32;5.63;;;2.78;;
73557;SDS011;61829;53.286;10.434;2024-02-15T13:43:17;6.40;;;2.85;;
73557;SDS011;61829;53.286;10.434;2024-02-15T13:46:03;6.03;;;3.00;;
73557;SDS011;61829;53.286;10.434;2024-02-15T13:48:48;4.75;;;2.90;;
73557;SDS011;61829;53.286;10.434;2024-02-15T13:51:33;8.02;;;2.75;;
73557;SDS011;61829;53.286;10.434;2024-02-15T13:54:19;4.95;;;2.90;;
73557;SDS011;61829;53.286;10.434;2024-02-15T13:59:48;5.88;;;3.13;;
73557;SDS011;61829;53.286;10.434;2024-02-15T14:02:33;4.88;;;3.00;;
73557;SDS011;61829;53.286;10.434;2024-02-15T14:05:18;5.35;;;3.10;;
73557;SDS011;61829;53.286;10.434;2024-02-15T14:08:07;5.90;;;3.08;;
73557;SDS011;61829;53.286;10.434;2024-02-15T14:10:59;5.20;;;2.85;;
73557;SDS011;61829;53.286;10.434;2024-02-15T14:13:44;5.35;;;3.17;;
73557;SDS011;61829;53.286;10.434;2024-02-15T14:16:29;6.35;;;3.20;;
73557;SDS011;61829;53.286;10.434;2024-02-15T14:19:14;5.18;;;3.30;;
73557;SDS011;61829;53.286;10.434;2024-02-15T14:22:00;6.68;;;3.65;;
73557;SDS011;61829;53.286;10.434;2024-02-15T14:24:45;5.90;;;3.55;;
73557;SDS011;61829;53.286;10.434;2024-02-15T14:27:30;5.68;;;3.50;;
73557;SDS011;61829;53.286;10.434;2024-02-15T14:30:16;6.68;;;3.97;;
73557;SDS011;61829;53.286;10.434;2024-02-15T14:33:19;9.15;;;4.25;;
73557;SDS011;61829;53.286;10.434;2024-02-15T14:36:06;6.57;;;3.58;;
73557;SDS011;61829;53.286;10.434;2024-02-15T14:38:51;7.78;;;3.45;;
73557;SDS011;61829;53.286;10.434;2024-02-15T14:41:37;5.45;;;3.80;;
73557;SDS011;61829;53.286;10.434;2024-02-15T14:44:22;7.63;;;4.10;;
73557;SDS011;61829;53.286;10.434;2024-02-15T14:50:27;6.82;;;3.85;;
73557;SDS011;61829;53.286;10.434;2024-02-15T14:53:12;9.32;;;4.55;;
73557;SDS011;61829;53.286;10.434;2024-02-15T14:56:00;7.00;;;4.10;;
73557;SDS011;61829;53.286;10.434;2024-02-15T14:58:46;6.72;;;3.72;;
73557;SDS011;61829;53.286;10.434;2024-02-15T15:01:31;5.75;;;4.20;;
73557;SDS011;61829;53.286;10.434;2024-02-15T15:04:15;8.75;;;4.40;;
73557;SDS011;61829;53.286;10.434;2024-02-15T15:07:00;6.22;;;4.07;;
73557;SDS011;61829;53.286;10.434;2024-02-15T15:10:03;5.85;;;3.85;;
73557;SDS011;61829;53.286;10.434;2024-02-15T15:13:07;5.68;;;3.90;;
73557;SDS011;61829;53.286;10.434;2024-02-15T15:15:53;6.97;;;3.83;;
73557;SDS011;61829;53.286;10.434;2024-02-15T15:18:38;6.15;;;4.07;;
73557;SDS011;61829;53.286;10.434;2024-02-15T15:21:23;6.22;;;4.15;;
73557;SDS011;61829;53.286;10.434;2024-02-15T15:24:08;7.00;;;4.25;;
73557;SDS011;61829;53.286;10.434;2024-02-15T15:26:53;7.32;;;4.15;;
73557;SDS011;61829;53.286;10.434;2024-02-15T15:29:38;6.63;;;4.40;;
73557;SDS011;61829;53.286;10.434;2024-02-15T15:32:22;10.52;;;4.30;;
73557;SDS011;61829;53.286;10.434;2024-02-15T15:35:07;6.70;;;4.00;;
73557;SDS011;61829;53.286;10.434;2024-02-15T15:37:56;7.30;;;4.20;;
73557;SDS011;61829;53.286;10.434;2024-02-15T15:40:41;9.18;;;4.03;;
73557;SDS011;61829;53.286;10.434;2024-02-15T15:43:26;6.88;;;4.22;;
73557;SDS011;61829;53.286;10.434;2024-02-15T15:46:14;4.57;;;3.30;;
73557;SDS011;61829;53.286;10.434;2024-02-15T15:48:59;6.53;;;4.10;;
73557;SDS011;61829;53.286;10.434;2024-02-15T15:51:45;8.35;;;4.00;;
73557;SDS011;61829;53.286;10.434;2024-02-15T15:54:31;5.38;;;3.88;;
73557;SDS011;61829;53.286;10.434;2024-02-15T15:57:15;9.48;;;4.60;;
73557;SDS011;61829;53.286;10.434;2024-02-15T16:00:00;5.95;;;4.18;;
73557;SDS011;61829;53.286;10.434;2024-02-15T16:02:47;7.80;;;3.67;;
73557;SDS011;61829;53.286;10.434;2024-02-15T16:08:17;6.28;;;3.85;;
73557;SDS011;61829;53.286;10.434;2024-02-15T16:11:03;6.45;;;3.53;;
73557;SDS011;61829;53.286;10.434;2024-02-15T16:13:50;8.77;;;3.28;;
73557;SDS011;61829;53.286;10.434;2024-02-15T16:16:39;9.15;;;3.47;;
73557;SDS011;61829;53.286;10.434;2024-02-15T16:19:24;6.45;;;3.63;;
73557;SDS011;61829;53.286;10.434;2024-02-15T16:22:10;7.15;;;3.20;;
73557;SDS011;61829;53.286;10.434;2024-02-15T16:24:55;5.50;;;3.38;;
73557;SDS011;61829;53.286;10.434;2024-02-15T16:27:39;6.40;;;3.63;;
73557;SDS011;61829;53.286;10.434;2024-02-15T16:30:26;6.07;;;3.35;;
73557;SDS011;61829;53.286;10.434;2024-02-15T16:33:10;7.13;;;3.72;;
73557;SDS011;61829;53.286;10.434;2024-02-15T16:35:55;6.00;;;3.92;;
73557;SDS011;61829;53.286;10.434;2024-02-15T16:38:40;5.68;;;3.65;;
73557;SDS011;61829;53.286;10.434;2024-02-15T16:41:25;5.45;;;3.50;;
73557;SDS011;61829;53.286;10.434;2024-02-15T16:44:14;8.18;;;3.60;;
73557;SDS011;61829;53.286;10.434;2024-02-15T16:47:00;6.80;;;3.40;;
73557;SDS011;61829;53.286;10.434;2024-02-15T16:52:30;7.03;;;3.38;;
73557;SDS011;61829;53.286;10.434;2024-02-15T16:55:15;8.30;;;3.90;;
73557;SDS011;61829;53.286;10.434;2024-02-15T16:58:01;9.18;;;3.67;;
73557;SDS011;61829;53.286;10.434;2024-02-15T17:00:51;8.05;;;3.60;;
73557;SDS011;61829;53.286;10.434;2024-02-15T17:03:36;5.78;;;3.67;;
73557;SDS011;61829;53.286;10.434;2024-02-15T17:06:21;6.53;;;3.58;;
73557;SDS011;61829;53.286;10.434;2024-02-15T17:09:05;6.22;;;3.92;;
73557;SDS011;61829;53.286;10.434;2024-02-15T17:11:51;7.47;;;3.72;;
73557;SDS011;61829;53.286;10.434;2024-02-15T17:14:35;11.10;;;4.80;;
73557;SDS011;61829;53.286;10.434;2024-02-15T17:17:22;6.95;;;4.18;;
73557;SDS011;61829;53.286;10.434;2024-02-15T17:20:07;7.45;;;4.00;;
73557;SDS011;61829;53.286;10.434;2024-02-15T17:22:58;7.28;;;4.22;;
73557;SDS011;61829;53.286;10.434;2024-02-15T17:25:43;7.45;;;4.40;;
73557;SDS011;61829;53.286;10.434;2024-02-15T17:28:27;7.78;;;4.30;;
73557;SDS011;61829;53.286;10.434;2024-02-15T17:31:15;7.85;;;4.70;;
73557;SDS011;61829;53.286;10.434;2024-02-15T17:33:59;8.80;;;4.45;;
73557;SDS011;61829;53.286;10.434;2024-02-15T17:36:45;10.88;;;4.40;;
73557;SDS011;61829;53.286;10.434;2024-02-15T17:39:33;7.40;;;4.25;;
73557;SDS011;61829;53.286;10.434;2024-02-15T17:42:18;7.55;;;4.53;;
73557;SDS011;61829;53.286;10.434;2024-02-15T17:47:48;7.15;;;3.78;;
73557;SDS011;61829;53.286;10.434;2024-02-15T17:50:34;6.28;;;3.95;;
73557;SDS011;61829;53.286;10.434;2024-02-15T17:53:19;5.63;;;3.85;;
73557;SDS011;61829;53.286;10.434;2024-02-15T17:56:07;7.15;;;3.83;;